Time;durP1;ratioP1;P1;durP2;ratioP2;P2;SDS_P1;SDS_P2;PMS_P1;PMS_P2;Temp;Humidity;BMP_temperature;BMP_pressure;BME280_temperature;BME280_humidity;BME280_pressure;Samples;Min_cycle;Max_cycle;Signal;HPM_P1;HPM_P2
2022/01/13 00:01:54;;;;;;;38.30;14.82;;;;;;;-5.02;62.70;94623.94;2075293;69;20136;-69
2022/01/13 00:04:20;;;;;;;34.42;13.25;;;;;;;-4.98;61.68;94614.31;2075282;69;20187;-72
2022/01/13 00:06:46;;;;;;;27.42;11.95;;;;;;;-4.98;62.43;94619.81;2075008;69;20633;-71
2022/01/13 00:09:13;;;;;;;27.33;10.60;;;;;;;-5.00;62.29;94621.47;2071565;69;20223;-67
2022/01/13 00:11:39;;;;;;;26.73;11.52;;;;;;;-5.07;63.49;94622.59;2071514;69;20495;-69
2022/01/13 00:21:49;;;;;;;19.42;9.90;;;;;;;-5.01;61.90;94614.47;2074813;69;20136;-68
2022/01/13 00:24:15;;;;;;;18.05;7.88;;;;;;;-4.91;62.55;94613.97;2074828;69;20140;-69
2022/01/13 00:26:42;;;;;;;27.60;12.02;;;;;;;-5.09;62.86;94622.28;2074903;69;20167;-68
2022/01/13 00:29:08;;;;;;;22.02;10.00;;;;;;;-4.95;61.77;94618.09;2071351;69;20147;-68
2022/01/13 00:31:38;;;;;;;23.20;10.18;;;;;;;-4.95;62.06;94627.13;2074095;69;20159;-68
2022/01/13 00:34:05;;;;;;;27.98;10.15;;;;;;;-4.95;62.93;94629.88;2074327;69;20264;-69
2022/01/13 00:36:34;;;;;;;19.77;9.27;;;;;;;-4.94;62.45;94636.88;2074764;69;20146;-68
2022/01/13 00:39:00;;;;;;;21.55;8.98;;;;;;;-4.89;63.19;94641.00;2074949;69;20201;-68
2022/01/13 00:41:29;;;;;;;16.27;8.20;;;;;;;-4.87;62.36;94638.53;2074899;69;20175;-68
2022/01/13 00:43:59;;;;;;;20.73;8.13;;;;;;;-4.90;61.65;94640.22;2074809;69;20148;-68
2022/01/13 00:46:29;;;;;;;15.63;7.00;;;;;;;-4.95;61.64;94638.13;2074840;69;20554;-68
2022/01/13 00:48:56;;;;;;;23.65;8.93;;;;;;;-5.25;62.94;94653.59;2074709;69;20148;-78
2022/01/13 00:51:24;;;;;;;27.92;9.75;;;;;;;-5.21;62.12;94658.94;2074752;69;20235;-72
2022/01/13 00:53:50;;;;;;;21.67;9.45;;;;;;;-5.07;62.61;94652.78;2074861;69;20144;-68
2022/01/13 00:56:16;;;;;;;19.90;8.93;;;;;;;-5.26;62.13;94646.59;2074890;69;20744;-70
2022/01/13 00:58:42;;;;;;;24.13;9.70;;;;;;;-5.38;62.94;94658.50;2074752;69;20654;-76
2022/01/13 01:01:08;;;;;;;20.15;10.02;;;;;;;-5.46;62.85;94655.31;2071441;69;20319;-68
2022/01/13 01:03:35;;;;;;;23.27;10.57;;;;;;;-5.37;63.08;94658.03;2074738;69;20136;-73
2022/01/13 01:06:03;;;;;;;22.58;10.20;;;;;;;-5.42;62.27;94650.41;2074561;69;20143;-68
2022/01/13 01:08:33;;;;;;;21.90;9.80;;;;;;;-5.23;62.75;94650.38;2074726;69;20227;-69
2022/01/13 01:11:02;;;;;;;22.42;9.07;;;;;;;-5.27;62.97;94647.78;2071303;69;20216;-68
2022/01/13 01:13:33;;;;;;;20.92;9.30;;;;;;;-5.22;62.86;94651.94;2074632;69;20595;-68
2022/01/13 01:16:02;;;;;;;21.25;9.43;;;;;;;-5.18;62.65;94653.28;2074957;69;20602;-70
2022/01/13 01:26:34;;;;;;;17.13;8.05;;;;;;;-5.23;61.89;94644.88;2071498;69;20148;-69
2022/01/13 01:31:38;;;;;;;18.00;7.50;;;;;;;-5.15;61.40;94637.84;2074709;69;20531;-69
2022/01/13 01:36:49;;;;;;;18.95;6.88;;;;;;;-5.24;62.34;94655.13;2075232;69;20155;-70
2022/01/13 01:39:14;;;;;;;16.77;6.88;;;;;;;-5.30;62.25;94658.97;2075350;69;20610;-69
2022/01/13 01:41:46;;;;;;;16.33;7.25;;;;;;;-5.31;62.77;94655.44;2071982;69;20138;-72
2022/01/13 01:44:13;;;;;;;;;;;;;;;-5.30;63.14;94667.19;2075095;69;20136;-77
2022/01/13 01:46:42;;;;;;;18.33;6.88;;;;;;;-5.33;62.80;94657.88;2074032;69;20060;-71
2022/01/13 01:49:21;;;;;;;14.98;6.50;;;;;;;-5.41;64.19;94659.41;2075057;69;20168;-70
2022/01/13 01:51:51;;;;;;;16.90;7.60;;;;;;;-5.76;65.07;94664.47;2071550;69;20155;-71
2022/01/13 01:54:17;;;;;;;16.77;7.22;;;;;;;-5.55;63.77;94660.03;2075243;69;20250;-69
2022/01/13 01:56:45;;;;;;;14.50;6.90;;;;;;;-5.54;64.26;94662.34;2075026;69;20139;-69
2022/01/13 01:59:15;;;;;;;19.20;7.53;;;;;;;-5.51;63.50;94668.88;2075162;69;20201;-69
2022/01/13 02:01:43;;;;;;;12.98;6.25;;;;;;;-5.49;62.40;94669.22;2075204;69;20144;-68
2022/01/13 02:04:09;;;;;;;14.18;6.32;;;;;;;-5.49;63.42;94671.94;2074913;69;20243;-69
2022/01/13 02:06:37;;;;;;;17.45;7.30;;;;;;;-5.64;63.54;94674.53;2074975;69;20147;-69
2022/01/13 02:09:08;;;;;;;14.13;7.05;;;;;;;-5.65;63.33;94673.00;2075153;69;20155;-68
2022/01/13 02:11:47;;;;;;;15.02;6.80;;;;;;;-5.63;64.25;94676.06;2071608;69;20143;-68
2022/01/13 02:16:59;;;;;;;14.32;6.55;;;;;;;-5.59;64.35;94664.91;2075096;69;20162;-69
2022/01/13 02:19:26;;;;;;;13.10;6.30;;;;;;;-5.61;62.80;94665.38;2075130;69;20159;-68
2022/01/13 02:21:52;;;;;;;13.13;6.43;;;;;;;-5.49;63.63;94655.47;2074916;69;20154;-68
2022/01/13 02:24:18;;;;;;;16.17;6.93;;;;;;;-5.67;63.30;94648.78;2075128;69;20175;-68
2022/01/13 02:26:44;;;;;;;11.98;6.13;;;;;;;-5.69;62.89;94667.66;2074834;69;20575;-68
2022/01/13 02:29:09;;;;;;;12.98;7.05;;;;;;;-5.57;63.26;94667.97;2074935;69;20225;-71
2022/01/13 02:31:35;;;;;;;15.20;7.00;;;;;;;-5.59;63.20;94670.41;2075155;69;20345;-69
2022/01/13 02:34:01;;;;;;;12.00;6.18;;;;;;;-5.47;61.93;94667.50;2074863;69;20148;-68
2022/01/13 02:36:30;;;;;;;14.18;6.63;;;;;;;-5.67;62.97;94680.94;2074757;69;20143;-68
2022/01/13 02:38:57;;;;;;;19.70;8.82;;;;;;;-5.82;63.72;94689.00;2074806;69;20207;-69
2022/01/13 02:41:23;;;;;;;20.38;9.85;;;;;;;-5.83;63.45;94692.22;2074834;69;20152;-80
2022/01/13 02:43:53;;;;;;;18.52;8.52;;;;;;;-5.81;64.00;94687.03;2074460;69;20675;-69
2022/01/13 02:48:57;;;;;;;18.67;8.48;;;;;;;-5.78;62.68;94692.34;2074646;69;20677;-69
2022/01/13 02:51:23;;;;;;;15.90;8.57;;;;;;;-5.82;63.51;94685.50;2074851;69;20128;-69
2022/01/13 02:53:49;;;;;;;15.60;8.73;;;;;;;-5.84;63.53;94679.72;2074711;69;20154;-69
2022/01/13 02:56:15;;;;;;;18.13;7.65;;;;;;;-5.74;63.33;94679.25;2074750;69;20231;-69
2022/01/13 02:58:40;;;;;;;16.95;7.97;;;;;;;-6.00;65.64;94676.09;2074602;69;20147;-68
2022/01/13 03:01:06;;;;;;;16.75;7.75;;;;;;;-5.87;64.75;94686.88;2074677;69;20186;-69
2022/01/13 03:03:34;;;;;;;16.42;7.93;;;;;;;-5.81;64.17;94684.31;2074509;69;20240;-69
2022/01/13 03:06:12;;;;;;;13.65;7.20;;;;;;;-5.71;63.88;94685.81;2074451;69;20148;-70
2022/01/13 03:08:42;;;;;;;17.23;6.85;;;;;;;-5.75;64.26;94679.72;2071130;69;21026;-73
2022/01/13 03:11:09;;;;;;;16.58;6.95;;;;;;;-5.68;63.70;94674.69;2074605;69;20175;-70
2022/01/13 03:13:35;;;;;;;15.43;6.40;;;;;;;-5.75;64.32;94666.75;2074965;69;20563;-70
2022/01/13 03:16:06;;;;;;;10.82;5.40;;;;;;;-5.69;64.25;94677.88;2075292;69;20159;-78
2022/01/13 03:18:31;;;;;;;9.23;5.00;;;;;;;-5.49;63.39;94678.19;2075334;69;20160;-73
2022/01/13 03:20:57;;;;;;;10.38;4.65;;;;;;;-5.42;63.25;94677.88;2075174;69;20205;-73
2022/01/13 03:23:23;;;;;;;11.35;4.68;;;;;;;-5.65;64.02;94682.00;2071812;69;20155;-72
2022/01/13 03:25:48;;;;;;;8.55;4.35;;;;;;;-5.51;63.61;94686.13;2075382;69;20491;-79
2022/01/13 03:28:28;;;;;;;10.57;5.80;;;;;;;-6.02;65.47;94692.22;2075303;69;20128;-73
2022/01/13 03:30:55;;;;;;;11.70;5.85;;;;;;;-5.84;64.43;94683.22;2075381;69;20218;-75
2022/01/13 03:33:21;;;;;;;14.77;6.03;;;;;;;-5.72;63.80;94681.56;2075323;69;20144;-79
2022/01/13 03:35:47;;;;;;;14.73;5.47;;;;;;;-5.74;64.58;94660.06;2075195;69;20538;-77
2022/01/13 03:38:13;;;;;;;13.52;5.60;;;;;;;-5.67;64.32;94651.53;2075441;69;20151;-73
2022/01/13 03:40:39;;;;;;;12.27;5.45;;;;;;;-5.65;63.15;94648.31;2075097;69;20135;-70
2022/01/13 03:43:05;;;;;;;11.23;5.22;;;;;;;-5.72;64.13;94651.38;2075094;69;20216;-70
2022/01/13 03:45:32;;;;;;;13.10;5.63;;;;;;;-5.71;64.07;94644.66;2075141;69;20151;-70
2022/01/13 03:48:02;;;;;;;10.80;5.10;;;;;;;-5.78;63.19;94651.19;2075107;69;20151;-72
2022/01/13 03:50:28;;;;;;;9.15;4.25;;;;;;;-5.60;63.55;94647.69;2075236;69;20229;-70
2022/01/13 03:53:28;;;;;;;11.95;5.55;;;;;;;-5.59;63.08;94649.22;2075097;69;20251;-70
2022/01/13 03:56:32;;;;;;;10.38;5.22;;;;;;;-5.68;63.27;94657.44;2075039;69;20609;-74
2022/01/13 03:59:31;;;;;;;9.65;4.35;;;;;;;-5.85;63.52;94659.75;2074839;69;20611;-73
2022/01/13 04:02:01;;;;;;;16.20;5.07;;;;;;;-5.78;64.21;94659.44;2071723;69;20168;-71
2022/01/13 04:04:29;;;;;;;9.35;4.95;;;;;;;-5.75;64.01;94661.28;2074975;69;20163;-70
2022/01/13 04:07:11;;;;;;;9.32;4.57;;;;;;;-5.78;64.00;94653.19;2075004;69;20143;-70
2022/01/13 04:09:56;;;;;;;14.73;5.78;;;;;;;-5.79;63.03;94648.94;2075116;69;20167;-70
2022/01/13 04:12:25;;;;;;;12.70;6.40;;;;;;;-5.75;63.87;94647.56;2075148;69;20136;-70
2022/01/13 04:14:55;;;;;;;15.15;6.50;;;;;;;-5.73;63.39;94641.59;2075020;69;20598;-70
2022/01/13 04:17:22;;;;;;;16.73;7.78;;;;;;;-5.71;63.57;94645.41;2075098;69;20144;-70
2022/01/13 04:19:48;;;;;;;14.27;7.18;;;;;;;-5.68;63.10;94647.25;2071728;69;20153;-82
2022/01/13 04:22:15;;;;;;;11.60;5.88;;;;;;;-5.82;63.85;94647.09;2075069;69;20221;-72
2022/01/13 04:24:46;;;;;;;15.70;6.90;;;;;;;-6.03;66.17;94657.78;2075100;69;20231;-70
2022/01/13 04:27:21;;;;;;;12.20;6.57;;;;;;;-5.81;64.09;94652.13;2075091;69;20140;-74
2022/01/13 04:29:49;;;;;;;15.57;7.63;;;;;;;-5.88;64.50;94650.44;2075080;69;20140;-78
2022/01/13 04:32:15;;;;;;;17.40;10.23;;;;;;;-5.77;63.86;94641.00;2075175;69;20172;-71
2022/01/13 04:34:41;;;;;;;15.55;8.43;;;;;;;-5.80;64.56;94633.69;2071557;69;20546;-71
2022/01/13 04:37:07;;;;;;;19.90;8.07;;;;;;;-5.85;63.47;94635.06;2075113;69;20144;-74
2022/01/13 04:39:32;;;;;;;18.77;9.23;;;;;;;-6.01;64.27;94638.13;2075049;69;20163;-71
2022/01/13 04:41:58;;;;;;;19.40;9.45;;;;;;;-6.01;64.53;94627.16;2075096;69;20164;-70
2022/01/13 04:44:25;;;;;;;17.45;8.38;;;;;;;-5.93;63.50;94620.91;2075136;69;20160;-71
2022/01/13 04:46:53;;;;;;;23.17;10.18;;;;;;;-5.94;64.78;94621.38;2071666;69;20351;-70
2022/01/13 04:49:20;;;;;;;25.75;9.70;;;;;;;-5.97;64.75;94627.78;2075038;69;20231;-70
2022/01/13 04:51:48;;;;;;;20.23;10.10;;;;;;;-5.91;65.14;94623.94;2075002;69;20226;-70
2022/01/13 04:54:16;;;;;;;18.55;10.20;;;;;;;-5.75;63.56;94627.59;2075368;69;20522;-70
2022/01/13 04:57:05;;;;;;;20.60;10.18;;;;;;;-5.82;63.97;94620.41;2074999;69;20514;-80
2022/01/13 04:59:27;;;;;;;21.10;10.35;;;;;;;-5.87;63.44;94613.56;2075087;69;20128;-70
2022/01/13 05:01:53;;;;;;;20.85;9.73;;;;;;;-5.81;63.40;94613.72;2075237;69;20152;-72
2022/01/13 05:04:18;;;;;;;22.77;9.07;;;;;;;-5.89;64.69;94621.50;2071760;69;20148;-75
2022/01/13 05:06:44;;;;;;;19.50;7.95;;;;;;;-5.80;63.78;94617.22;2075452;69;20140;-75
2022/01/13 05:09:10;;;;;;;12.50;6.40;;;;;;;-5.81;64.02;94630.19;2075896;69;20593;-79
2022/01/13 05:11:35;;;;;;;18.60;9.18;;;;;;;-6.06;64.97;94641.47;2076053;69;20177;-76
2022/01/13 05:14:01;;;;;;;27.92;12.40;;;;;;;-6.24;66.12;94647.69;2075543;69;20191;-77
2022/01/13 05:16:34;;;;;;;26.33;12.68;;;;;;;-6.13;64.97;94653.53;2076133;69;20243;-83
2022/01/13 05:24:14;;;;;;;34.33;13.60;;;;;;;-6.07;64.55;94670.88;2075471;69;20219;-70
2022/01/13 05:26:40;;;;;;;28.17;12.70;;;;;;;-6.03;64.80;94676.22;2075413;69;20199;-71
2022/01/13 05:29:06;;;;;;;25.77;12.65;;;;;;;-6.15;65.13;94675.13;2075446;69;20162;-72
2022/01/13 05:31:32;;;;;;;32.13;12.10;;;;;;;-5.99;64.53;94677.59;2075433;69;20525;-70
2022/01/13 05:33:57;;;;;;;27.00;12.65;;;;;;;-6.08;64.07;94672.09;2075516;69;20216;-70
2022/01/13 05:36:23;;;;;;;28.88;13.45;;;;;;;-6.08;63.72;94665.88;2075322;69;20152;-70
2022/01/13 05:38:50;;;;;;;32.60;13.60;;;;;;;-5.98;63.29;94662.66;2075440;69;20147;-74
2022/01/13 05:41:15;;;;;;;37.70;14.95;;;;;;;-6.02;63.71;94664.78;2075393;69;20241;-72
2022/01/13 05:43:41;;;;;;;56.83;19.67;;;;;;;-6.04;63.75;94664.50;2075445;69;20242;-72
2022/01/13 05:46:07;;;;;;;47.95;17.02;;;;;;;-6.12;64.45;94663.25;2075434;69;20231;-70
2022/01/13 05:48:32;;;;;;;42.85;16.73;;;;;;;-6.11;64.67;94655.78;2075620;69;20152;-70
2022/01/13 05:50:59;;;;;;;50.45;18.20;;;;;;;-6.04;65.48;94667.25;2075319;69;20144;-70
2022/01/13 05:53:25;;;;;;;44.85;17.65;;;;;;;-6.12;65.10;94679.72;2075496;69;20193;-70
2022/01/13 05:55:51;;;;;;;44.72;17.23;;;;;;;-6.05;65.25;94673.16;2075368;69;20139;-71
2022/01/13 05:58:17;;;;;;;46.78;17.42;;;;;;;-6.06;65.22;94680.63;2075378;69;20205;-72
2022/01/13 06:00:42;;;;;;;50.95;19.25;;;;;;;-6.13;66.14;94686.44;2075326;69;20227;-70
2022/01/13 06:03:09;;;;;;;60.03;22.88;;;;;;;-6.04;65.58;94680.19;2075340;69;20144;-69
2022/01/13 06:05:35;;;;;;;63.72;23.40;;;;;;;-6.15;64.98;94673.16;2075961;69;20560;-70
2022/01/13 06:08:01;;;;;;;60.33;21.88;;;;;;;-6.11;64.45;94677.72;2076215;69;20140;-72
2022/01/13 06:10:27;;;;;;;54.92;20.15;;;;;;;-6.09;64.18;94676.06;2075353;69;20194;-72
2022/01/13 06:12:53;;;;;;;60.05;22.08;;;;;;;-6.09;64.59;94676.06;2075392;69;20586;-73
2022/01/13 06:15:21;;;;;;;63.33;22.67;;;;;;;-6.06;64.80;94675.16;2075461;69;20291;-75
2022/01/13 06:17:49;;;;;;;64.43;23.00;;;;;;;-5.98;63.98;94670.13;2075350;69;20171;-70
2022/01/13 06:20:15;;;;;;;54.72;20.35;;;;;;;-6.05;63.15;94673.16;2075232;69;20273;-76
2022/01/13 06:22:43;;;;;;;64.38;23.42;;;;;;;-6.18;64.48;94665.09;2075242;69;20602;-77
2022/01/13 06:25:10;;;;;;;69.65;24.85;;;;;;;-6.20;65.23;94671.00;2075329;69;20136;-75
2022/01/13 06:27:37;;;;;;;85.70;28.17;;;;;;;-6.28;65.65;94671.75;2075415;69;20148;-73
2022/01/13 06:30:04;;;;;;;87.47;28.98;;;;;;;-6.17;64.71;94678.34;2075369;69;20140;-70
2022/01/13 06:32:30;;;;;;;81.38;27.85;;;;;;;-6.14;64.28;94687.63;2075391;69;20602;-71
2022/01/13 06:34:55;;;;;;;79.75;28.20;;;;;;;-6.13;65.33;94691.91;2075328;69;20232;-70
2022/01/13 06:37:21;;;;;;;81.57;28.77;;;;;;;-6.23;64.86;94687.59;2075309;69;20128;-70
2022/01/13 06:39:47;;;;;;;80.20;29.15;;;;;;;-6.08;63.88;94694.06;2075577;69;20156;-69
2022/01/13 06:42:13;;;;;;;81.15;27.40;;;;;;;-6.05;65.15;94698.59;2075444;69;20156;-70
2022/01/13 06:44:39;;;;;;;87.07;28.58;;;;;;;-6.03;64.67;94703.66;2075623;69;20232;-78
2022/01/13 06:47:06;;;;;;;83.78;27.23;;;;;;;-6.16;64.24;94701.78;2075740;69;20178;-76
2022/01/13 06:49:31;;;;;;;71.72;26.02;;;;;;;-6.18;65.05;94696.00;2075749;69;20144;-77
2022/01/13 06:51:57;;;;;;;65.43;23.50;;;;;;;-6.14;64.61;94693.09;2075268;69;20147;-78
2022/01/13 06:54:23;;;;;;;70.10;24.25;;;;;;;-6.17;64.55;94697.53;2075373;69;20610;-73
2022/01/13 06:56:50;;;;;;;69.07;22.77;;;;;;;-6.19;65.15;94697.22;2075443;69;20147;-76
2022/01/13 06:59:16;;;;;;;76.97;28.67;;;;;;;-6.15;65.07;94695.09;2075406;69;20154;-82
2022/01/13 07:01:42;;;;;;;88.95;36.00;;;;;;;-6.11;65.23;94705.91;2075553;69;20148;-74
2022/01/13 07:04:13;;;;;;;113.20;47.53;;;;;;;-6.22;66.26;94703.63;2075244;69;20147;-70
2022/01/13 07:06:39;;;;;;;82.60;30.08;;;;;;;-6.04;65.13;94718.59;2075161;69;20456;-69
2022/01/13 07:09:07;;;;;;;67.00;25.77;;;;;;;-6.09;65.15;94725.44;2075318;69;20144;-70
2022/01/13 07:11:33;;;;;;;68.55;24.13;;;;;;;-6.12;65.02;94731.06;2075295;69;20591;-69
2022/01/13 07:13:59;;;;;;;61.95;23.38;;;;;;;-6.16;65.13;94737.44;2075376;69;20655;-70
2022/01/13 07:16:25;;;;;;;60.33;23.73;;;;;;;-6.11;65.18;94736.09;2075263;69;20148;-70
2022/01/13 07:18:50;;;;;;;67.85;26.85;;;;;;;-6.04;65.38;94748.75;2075281;69;20144;-80
2022/01/13 07:21:17;;;;;;;69.80;27.40;;;;;;;-5.98;64.92;94744.94;2075142;69;20273;-70
2022/01/13 07:23:43;;;;;;;63.90;25.95;;;;;;;-6.05;64.66;94749.97;2075495;69;20587;-71
2022/01/13 07:26:09;;;;;;;72.85;26.60;;;;;;;-6.08;65.48;94748.91;2075523;69;20143;-70
2022/01/13 07:28:34;;;;;;;67.68;25.50;;;;;;;-6.05;64.58;94752.69;2075283;69;20519;-70
2022/01/13 07:31:00;;;;;;;70.80;28.40;;;;;;;-6.09;64.69;94755.59;2071844;69;20144;-73
2022/01/13 07:33:26;;;;;;;71.32;28.95;;;;;;;-6.16;65.40;94762.13;2075171;69;20186;-70
2022/01/13 07:35:51;;;;;;;77.35;28.20;;;;;;;-6.00;65.45;94771.28;2075061;69;20148;-70
2022/01/13 07:38:17;;;;;;;68.75;26.65;;;;;;;-5.98;64.89;94769.63;2075196;69;20148;-70
2022/01/13 07:40:43;;;;;;;69.47;28.02;;;;;;;-6.01;64.45;94767.78;2075324;69;20617;-70
2022/01/13 07:43:09;;;;;;;74.30;32.53;;;;;;;-5.93;65.21;94766.28;2075270;69;20148;-69
2022/01/13 07:45:35;;;;;;;92.47;36.92;;;;;;;-5.95;64.43;94766.00;2075187;69;20218;-70
2022/01/13 07:48:00;;;;;;;82.57;33.28;;;;;;;-5.85;65.17;94777.72;2075372;69;20156;-70
2022/01/13 07:50:26;;;;;;;84.68;34.40;;;;;;;-5.94;64.93;94775.75;2075073;69;20171;-76
2022/01/13 07:52:52;;;;;;;91.78;35.78;;;;;;;-5.84;64.95;94783.97;2075139;69;20151;-71
2022/01/13 07:55:17;;;;;;;92.82;37.65;;;;;;;-5.82;65.51;94782.28;2075112;69;20167;-74
2022/01/13 07:57:43;;;;;;;87.20;37.33;;;;;;;-5.79;65.46;94783.38;2075167;69;20140;-73
2022/01/13 08:00:11;;;;;;;93.15;37.88;;;;;;;-5.76;64.46;94774.25;2071763;69;20146;-73
2022/01/13 08:02:40;;;;;;;84.45;35.60;;;;;;;-5.83;65.34;94780.00;2075140;69;20170;-74
2022/01/13 08:05:07;;;;;;;82.30;32.90;;;;;;;-5.83;65.66;94777.25;2075011;69;20263;-74
2022/01/13 08:07:33;;;;;;;78.13;32.15;;;;;;;-5.83;65.12;94789.00;2075193;69;20275;-70
2022/01/13 08:09:59;;;;;;;91.18;37.00;;;;;;;-5.71;65.72;94784.63;2075158;69;20200;-70
2022/01/13 08:12:25;;;;;;;101.75;42.88;;;;;;;-5.63;65.22;94772.13;2075194;69;20150;-72
2022/01/13 08:14:51;;;;;;;97.78;41.97;;;;;;;-5.64;65.76;94779.56;2075103;69;20583;-70
2022/01/13 08:20:02;;;;;;;90.95;40.85;;;;;;;-5.57;65.78;94770.28;2075720;69;20226;-69
2022/01/13 08:22:27;;;;;;;88.15;40.72;;;;;;;-5.62;65.50;94762.66;2075123;69;20148;-69
2022/01/13 08:24:53;;;;;;;90.20;38.42;;;;;;;-5.62;65.53;94762.66;2075119;69;20150;-75
2022/01/13 08:27:19;;;;;;;84.10;34.00;;;;;;;-5.60;66.04;94764.94;2075230;69;20128;-75
2022/01/13 08:29:44;;;;;;;74.10;33.28;;;;;;;-5.75;66.54;94762.03;2075261;69;20653;-77
2022/01/13 08:32:10;;;;;;;64.07;28.10;;;;;;;-5.53;65.29;94761.91;2075209;69;20151;-73
2022/01/13 08:34:35;;;;;;;64.25;27.33;;;;;;;-5.60;65.56;94762.19;2075186;69;20184;-70
2022/01/13 08:37:01;;;;;;;73.05;29.60;;;;;;;-5.51;65.14;94753.97;2075524;69;20160;-80
2022/01/13 08:39:27;;;;;;;69.30;28.55;;;;;;;-5.49;65.80;94751.56;2075175;69;20179;-73
2022/01/13 08:41:52;;;;;;;70.38;29.85;;;;;;;-5.74;66.38;94750.59;2075121;69;20140;-72
2022/01/13 08:44:18;;;;;;;74.18;30.27;;;;;;;-5.50;65.43;94750.00;2071916;69;20159;-72
2022/01/13 08:46:44;;;;;;;75.00;30.92;;;;;;;-5.34;65.17;94755.22;2072305;69;20140;-71
2022/01/13 08:49:10;;;;;;;86.82;35.95;;;;;;;-4.78;64.58;94762.16;2075571;69;20605;-70
2022/01/13 08:51:36;;;;;;;322.35;92.57;;;;;;;-4.49;64.53;94761.66;2075561;69;20584;-71
2022/01/13 08:54:02;;;;;;;187.65;69.80;;;;;;;-4.15;64.99;94765.94;2075567;69;20628;-71
2022/01/13 08:56:28;;;;;;;149.85;55.72;;;;;;;-3.94;64.50;94758.66;2072052;69;20148;-73
2022/01/13 08:58:53;;;;;;;157.75;63.72;;;;;;;-3.56;64.11;94761.97;2075425;69;20144;-71
2022/01/13 09:01:19;;;;;;;89.50;38.90;;;;;;;-3.38;63.07;94751.59;2075482;69;20231;-71
2022/01/13 09:03:45;;;;;;;87.43;35.35;;;;;;;-3.06;64.35;94749.19;2075428;69;20143;-71
2022/01/13 09:06:11;;;;;;;75.65;32.22;;;;;;;-2.83;62.60;94759.38;2075406;69;20167;-73
2022/01/13 09:08:36;;;;;;;76.18;32.53;;;;;;;-2.45;62.75;94757.78;2075698;69;20237;-71
2022/01/13 09:11:02;;;;;;;56.67;25.77;;;;;;;-2.36;62.03;94754.91;2075638;69;20143;-72
2022/01/13 09:13:33;;;;;;;50.63;22.75;;;;;;;-2.18;61.84;94759.47;2075463;69;20162;-71
2022/01/13 09:16:00;;;;;;;45.65;21.10;;;;;;;-1.78;61.27;94752.53;2075589;69;20144;-71
2022/01/13 09:18:46;;;;;;;53.03;22.27;;;;;;;-2.17;61.70;94757.47;2075616;69;20131;-71
2022/01/13 09:21:13;;;;;;;53.20;22.48;;;;;;;-1.79;61.09;94753.75;2075349;69;20148;-72
2022/01/13 09:23:39;;;;;;;40.92;19.27;;;;;;;-1.54;59.92;94763.41;2075420;69;20645;-71
2022/01/13 09:26:05;;;;;;;35.67;15.02;;;;;;;-1.20;59.63;94764.56;2075481;69;20172;-71
2022/01/13 09:28:32;;;;;;;33.95;15.30;;;;;;;-1.05;58.47;94756.22;2075468;69;20144;-71
2022/01/13 09:30:58;;;;;;;42.45;20.10;;;;;;;-1.18;58.17;94756.56;2075716;69;20148;-71
2022/01/13 09:33:25;;;;;;;24.08;10.82;;;;;;;-1.12;57.77;94762.16;2075576;69;20155;-72
2022/01/13 09:35:50;;;;;;;103.30;39.47;;;;;;;-0.60;57.74;94762.22;2075416;69;20140;-75
2022/01/13 09:38:16;;;;;;;53.90;21.13;;;;;;;-0.73;57.02;94759.84;2075453;69;20140;-72
2022/01/13 09:40:45;;;;;;;83.32;33.95;;;;;;;-0.57;56.00;94762.00;2075436;69;20572;-74
2022/01/13 09:43:11;;;;;;;124.72;50.25;;;;;;;-0.65;56.26;94763.66;2075439;69;20151;-75
2022/01/13 09:45:38;;;;;;;11.85;6.05;;;;;;;-0.41;54.61;94762.63;2075337;69;20164;-73
2022/01/13 09:48:04;;;;;;;12.27;6.00;;;;;;;-0.13;53.26;94763.66;2075409;69;20152;-77
2022/01/13 09:50:29;;;;;;;9.40;4.88;;;;;;;0.28;53.15;94757.16;2075341;69;20147;-76
2022/01/13 09:52:55;;;;;;;10.15;4.78;;;;;;;0.54;52.16;94762.59;2075424;69;20522;-72
2022/01/13 09:55:21;;;;;;;47.83;15.98;;;;;;;0.79;51.87;94749.88;2075380;69;20163;-72
2022/01/13 09:57:50;;;;;;;40.53;14.65;;;;;;;1.32;52.52;94751.78;2075292;69;20166;-71
2022/01/13 10:00:26;;;;;;;58.90;20.88;;;;;;;1.10;50.12;94757.28;2075563;69;20212;-71
2022/01/13 10:02:53;;;;;;;29.58;15.23;;;;;;;0.96;48.83;94754.22;2075595;69;20234;-76
2022/01/13 10:05:21;;;;;;;17.38;7.95;;;;;;;1.18;49.74;94761.09;2075172;69;20155;-69
2022/01/13 10:07:48;;;;;;;12.98;7.10;;;;;;;1.13;48.70;94762.59;2075349;69;20237;-70
2022/01/13 10:10:16;;;;;;;15.70;8.27;;;;;;;1.70;49.14;94766.28;2075419;69;20155;-74
2022/01/13 10:12:44;;;;;;;14.40;7.55;;;;;;;2.00;48.29;94752.66;2075362;69;20213;-74
2022/01/13 10:17:50;;;;;;;14.98;7.57;;;;;;;2.55;46.85;94748.28;2075285;69;20152;-74
2022/01/13 10:20:18;;;;;;;12.02;6.72;;;;;;;2.03;47.33;94746.09;2075248;69;20148;-74
2022/01/13 10:22:45;;;;;;;10.02;5.78;;;;;;;2.15;46.96;94742.03;2075319;69;20136;-74
2022/01/13 10:25:32;;;;;;;9.50;5.50;;;;;;;2.76;45.80;94738.38;2075236;69;20140;-73
2022/01/13 10:28:12;;;;;;;10.65;5.78;;;;;;;3.29;43.70;94738.41;2075326;69;20140;-73
2022/01/13 10:30:38;;;;;;;11.75;6.60;;;;;;;3.36;42.17;94737.88;2075318;69;20148;-71
2022/01/13 10:33:19;;;;;;;9.13;5.15;;;;;;;4.12;42.28;94732.78;2075251;69;20140;-72
2022/01/13 10:35:46;;;;;;;8.63;5.07;;;;;;;4.68;41.19;94741.41;2075166;69;20233;-71
2022/01/13 10:38:16;;;;;;;6.95;4.13;;;;;;;3.60;39.34;94733.66;2075374;69;20205;-70
2022/01/13 10:40:45;;;;;;;11.02;5.00;;;;;;;4.31;41.56;94737.19;2075372;69;20143;-72
2022/01/13 10:43:11;;;;;;;9.82;5.47;;;;;;;4.83;39.79;94733.34;2075244;69;20179;-71
2022/01/13 10:45:38;;;;;;;9.40;5.30;;;;;;;4.67;39.82;94739.09;2075186;69;20167;-69
2022/01/13 10:48:06;;;;;;;7.43;4.93;;;;;;;5.33;38.04;94734.78;2075384;69;20143;-72
2022/01/13 10:50:43;;;;;;;8.35;4.50;;;;;;;5.80;38.48;94733.63;2075121;69;20205;-72
2022/01/13 10:53:12;;;;;;;7.05;3.83;;;;;;;6.36;35.66;94727.94;2075227;69;20148;-70
2022/01/13 10:55:47;;;;;;;7.65;4.28;;;;;;;6.16;36.81;94728.53;2075200;69;20597;-70
2022/01/13 10:58:15;;;;;;;8.45;4.13;;;;;;;7.47;36.00;94722.78;2075133;69;20152;-71
2022/01/13 11:00:42;;;;;;;8.40;3.90;;;;;;;5.73;36.14;94723.09;2071790;69;20506;-77
2022/01/13 11:03:11;;;;;;;19.55;4.85;;;;;;;6.04;36.40;94718.81;2075212;69;20147;-72
2022/01/13 11:05:55;;;;;;;6.88;3.72;;;;;;;7.20;35.62;94724.88;2075006;69;20239;-74
2022/01/13 11:08:31;;;;;;;19.58;9.15;;;;;;;7.76;33.71;94716.03;2075364;69;20279;-72
2022/01/13 11:11:00;;;;;;;8.70;4.70;;;;;;;8.99;33.75;94728.34;2075199;69;20499;-72
2022/01/13 11:13:28;;;;;;;10.60;5.50;;;;;;;9.57;30.09;94736.13;2075149;69;20610;-75
2022/01/13 11:15:55;;;;;;;13.55;6.28;;;;;;;11.25;30.61;94729.25;2075159;69;20163;-73
2022/01/13 11:18:25;;;;;;;15.13;6.75;;;;;;;12.44;27.80;94735.53;2075307;69;20217;-74
2022/01/13 11:20:51;;;;;;;10.95;5.63;;;;;;;14.37;27.70;94736.59;2075077;69;20158;-73
2022/01/13 11:23:18;;;;;;;14.35;6.97;;;;;;;13.44;25.62;94729.81;2075111;69;20255;-74
2022/01/13 11:25:51;;;;;;;23.90;11.50;;;;;;;13.12;25.53;94733.50;2075087;69;20243;-73
2022/01/13 11:28:16;;;;;;;24.75;15.75;;;;;;;14.15;26.74;94729.16;2075156;69;20637;-74
2022/01/13 11:30:42;;;;;;;33.50;23.08;;;;;;;14.59;23.69;94731.22;2075121;69;20132;-74
2022/01/13 11:33:08;;;;;;;34.67;26.52;;;;;;;12.47;25.63;94734.38;2075139;69;20667;-74
2022/01/13 11:35:48;;;;;;;18.20;11.88;;;;;;;9.90;26.66;94742.09;2075003;69;20553;-73
2022/01/13 11:38:16;;;;;;;31.83;12.32;;;;;;;8.60;29.22;94742.09;2075232;69;20140;-73
2022/01/13 11:40:54;;;;;;;27.73;12.95;;;;;;;9.00;29.42;94738.28;2075143;69;20136;-72
2022/01/13 11:43:29;;;;;;;25.40;15.52;;;;;;;6.71;31.44;94737.25;2075180;69;20228;-72
2022/01/13 11:45:59;;;;;;;19.73;12.23;;;;;;;6.84;31.89;94736.53;2075094;69;20144;-71
2022/01/13 11:48:29;;;;;;;17.38;9.18;;;;;;;6.26;32.07;94735.22;2075125;69;20674;-72
2022/01/13 11:51:18;;;;;;;15.07;8.18;;;;;;;4.99;34.40;94736.47;2075038;69;20140;-72
2022/01/13 11:54:02;;;;;;;31.92;11.20;;;;;;;5.28;35.35;94721.66;2075228;69;20183;-72
2022/01/13 11:56:28;;;;;;;32.25;10.75;;;;;;;5.38;35.71;94715.69;2075008;69;20195;-71
2022/01/13 11:58:55;;;;;;;24.33;8.73;;;;;;;5.06;35.56;94711.50;2075049;69;20214;-72
2022/01/13 12:01:34;;;;;;;18.00;7.90;;;;;;;4.87;36.15;94713.53;2071676;69;20226;-71
2022/01/13 12:04:04;;;;;;;20.20;8.73;;;;;;;4.18;36.28;94713.97;2075035;69;20251;-72
2022/01/13 12:06:39;;;;;;;19.02;8.27;;;;;;;4.36;38.40;94709.78;2071678;69;20238;-71